createdAt,value
2024-01-12T00:02:21.686Z,23.27
2024-01-12T00:04:49.403Z,23.63
2024-01-12T00:07:17.039Z,23.13
2024-01-12T00:09:45.271Z,22.83
2024-01-12T00:12:14.270Z,23.30
2024-01-12T00:14:41.918Z,22.85
2024-01-12T00:17:09.582Z,22.67
2024-01-12T00:19:37.296Z,21.50
2024-01-12T00:22:05.286Z,23.63
2024-01-12T00:24:32.895Z,21.25
2024-01-12T00:27:00.545Z,21.80
2024-01-12T00:29:29.532Z,22.42
2024-01-12T00:31:58.313Z,21.52
2024-01-12T00:34:25.913Z,21.45
2024-01-12T00:36:54.843Z,21.17
2024-01-12T00:39:22.620Z,20.45
2024-01-12T00:41:52.010Z,22.20
2024-01-12T00:44:20.046Z,21.70
2024-01-12T00:46:51.936Z,21.33
2024-01-12T00:49:20.436Z,22.02
2024-01-12T00:51:48.716Z,21.13
2024-01-12T00:54:16.930Z,22.08
2024-01-12T00:56:44.949Z,21.30
2024-01-12T00:59:12.711Z,22.23
2024-01-12T01:01:40.378Z,21.02
2024-01-12T01:04:09.404Z,20.50
2024-01-12T01:06:37.288Z,21.63
2024-01-12T01:09:05.044Z,20.23
2024-01-12T01:11:32.804Z,21.48
2024-01-12T01:14:00.458Z,21.05
2024-01-12T01:16:28.170Z,20.60
2024-01-12T01:18:55.906Z,21.30
2024-01-12T01:21:25.225Z,20.20
2024-01-12T01:23:52.983Z,20.13
2024-01-12T01:26:20.601Z,19.33
2024-01-12T01:28:48.799Z,20.23
2024-01-12T01:31:16.591Z,21.25
2024-01-12T01:33:44.705Z,19.85
2024-01-12T01:36:12.399Z,21.38
2024-01-12T01:38:41.355Z,20.65
2024-01-12T01:41:09.063Z,21.38
2024-01-12T01:43:36.638Z,20.90
2024-01-12T01:46:04.834Z,19.17
2024-01-12T01:48:33.293Z,19.73
2024-01-12T01:51:01.302Z,19.67
2024-01-12T01:53:29.227Z,21.48
2024-01-12T01:55:58.309Z,20.05
2024-01-12T01:58:26.700Z,20.08
2024-01-12T02:00:54.891Z,18.77
2024-01-12T02:03:25.210Z,20.48
2024-01-12T02:05:57.905Z,18.52
2024-01-12T02:08:26.333Z,19.33
2024-01-12T02:10:54.398Z,19.92
2024-01-12T02:13:23.797Z,19.40
2024-01-12T02:15:51.651Z,18.08
2024-01-12T02:18:19.410Z,20.45
2024-01-12T02:20:49.264Z,19.67
2024-01-12T02:23:18.668Z,19.35
2024-01-12T02:25:46.361Z,19.73
2024-01-12T02:28:14.553Z,18.33
2024-01-12T02:30:42.294Z,18.95
2024-01-12T02:33:10.383Z,17.02
2024-01-12T02:35:38.241Z,18.65
2024-01-12T02:38:05.898Z,18.27
2024-01-12T02:40:34.819Z,18.80
2024-01-12T02:43:02.933Z,18.15
2024-01-12T02:45:30.609Z,18.42
2024-01-12T02:47:58.366Z,17.58
2024-01-12T02:50:26.185Z,18.02
2024-01-12T02:52:54.008Z,16.45
2024-01-12T02:55:21.599Z,17.50
2024-01-12T02:57:50.597Z,17.00
2024-01-12T03:00:18.603Z,16.48
2024-01-12T03:02:46.543Z,16.38
2024-01-12T03:05:14.369Z,17.02
2024-01-12T03:07:42.120Z,16.85
2024-01-12T03:10:10.676Z,16.88
2024-01-12T03:12:38.350Z,16.58
2024-01-12T03:15:08.371Z,17.60
2024-01-12T03:17:36.350Z,18.08
2024-01-12T03:20:06.139Z,19.05
2024-01-12T03:22:33.771Z,17.52
2024-01-12T03:25:01.952Z,18.27
2024-01-12T03:27:29.581Z,17.45
2024-01-12T03:29:57.450Z,16.77
2024-01-12T03:32:26.778Z,16.25
2024-01-12T03:34:54.577Z,16.90
2024-01-12T03:37:22.215Z,18.55
2024-01-12T03:39:49.975Z,17.10
2024-01-12T03:42:18.090Z,18.30
2024-01-12T03:44:45.709Z,18.00
2024-01-12T03:47:13.479Z,18.58
2024-01-12T03:49:42.883Z,18.20
2024-01-12T03:52:15.404Z,16.85
2024-01-12T03:54:44.225Z,17.00
2024-01-12T03:57:11.966Z,18.55
2024-01-12T03:59:39.598Z,17.52
2024-01-12T04:02:07.526Z,17.63
2024-01-12T04:04:35.110Z,19.02
2024-01-12T04:07:04.425Z,19.98
2024-01-12T04:09:32.059Z,19.05
2024-01-12T04:11:59.678Z,19.30
2024-01-12T04:14:27.398Z,19.75
2024-01-12T04:16:55.095Z,20.00
2024-01-12T04:19:22.787Z,19.65
2024-01-12T04:21:50.416Z,18.02
2024-01-12T04:24:19.379Z,18.85
2024-01-12T04:26:47.124Z,18.70
2024-01-12T04:29:14.851Z,17.60
2024-01-12T04:31:42.691Z,17.80
2024-01-12T04:34:10.483Z,17.20
2024-01-12T04:36:38.215Z,16.42
2024-01-12T04:39:05.957Z,17.38
2024-01-12T04:41:34.963Z,17.17
2024-01-12T04:44:02.691Z,16.98
2024-01-12T04:46:30.683Z,15.90
2024-01-12T04:48:58.507Z,16.80
2024-01-12T04:51:26.216Z,16.40
2024-01-12T04:53:53.930Z,15.88
2024-01-12T04:56:21.644Z,16.58
2024-01-12T04:58:50.851Z,17.95
2024-01-12T05:01:18.726Z,17.35
2024-01-12T05:03:46.439Z,17.40
2024-01-12T05:06:14.227Z,16.67
2024-01-12T05:08:41.986Z,17.08
2024-01-12T05:11:09.640Z,17.52
2024-01-12T05:13:37.355Z,16.10
2024-01-12T05:16:06.637Z,15.80
2024-01-12T05:18:34.482Z,16.52
2024-01-12T05:21:02.285Z,16.40
2024-01-12T05:23:29.932Z,16.58
2024-01-12T05:25:57.693Z,16.23
2024-01-12T05:28:25.312Z,14.57
2024-01-12T05:30:53.208Z,14.15
2024-01-12T05:33:22.273Z,14.43
2024-01-12T05:35:49.970Z,15.07
2024-01-12T05:38:17.608Z,13.48
2024-01-12T05:40:45.287Z,14.15
2024-01-12T05:43:12.874Z,15.98
2024-01-12T05:45:40.522Z,15.18
2024-01-12T05:48:08.583Z,17.13
2024-01-12T05:50:37.799Z,15.82
2024-01-12T05:53:07.398Z,16.15
2024-01-12T05:55:35.806Z,15.32
2024-01-12T05:58:04.387Z,15.93
2024-01-12T06:00:33.556Z,14.98
2024-01-12T06:03:01.292Z,14.77
2024-01-12T06:05:29.060Z,14.60
2024-01-12T06:07:58.002Z,14.23
2024-01-12T06:10:25.609Z,14.38
2024-01-12T06:12:53.854Z,14.88
2024-01-12T06:15:21.602Z,15.05
2024-01-12T06:17:50.016Z,14.85
2024-01-12T06:20:17.908Z,14.85
2024-01-12T06:22:45.486Z,14.00
2024-01-12T06:25:14.564Z,15.15
2024-01-12T06:27:42.738Z,15.65
2024-01-12T06:30:10.968Z,15.07
2024-01-12T06:32:39.473Z,15.57
2024-01-12T06:35:10.197Z,16.25
2024-01-12T06:37:38.018Z,14.82
2024-01-12T06:40:06.856Z,16.13
2024-01-12T06:42:35.840Z,16.20
2024-01-12T06:45:04.710Z,16.30
2024-01-12T06:47:32.446Z,18.02
2024-01-12T06:50:00.249Z,14.48
2024-01-12T06:52:28.077Z,16.10
2024-01-12T06:54:55.884Z,15.90
2024-01-12T06:57:23.763Z,16.17
2024-01-12T06:59:52.771Z,14.75
2024-01-12T07:02:20.523Z,17.08
2024-01-12T07:04:48.140Z,16.33
2024-01-12T07:07:15.832Z,16.65
2024-01-12T07:09:43.513Z,18.67
2024-01-12T07:12:11.199Z,17.33
2024-01-12T07:14:39.103Z,16.20
2024-01-12T07:17:08.086Z,16.05
2024-01-12T07:19:35.809Z,15.60
2024-01-12T07:22:03.589Z,15.88
2024-01-12T07:24:31.188Z,15.15
2024-01-12T07:26:58.926Z,14.95
2024-01-12T07:29:26.646Z,15.85
2024-01-12T07:31:55.812Z,15.65
2024-01-12T07:34:26.379Z,16.20
2024-01-12T07:36:54.908Z,15.63
2024-01-12T07:39:22.519Z,15.40
2024-01-12T07:41:50.168Z,21.83
2024-01-12T07:44:18.495Z,23.55
2024-01-12T07:46:46.099Z,21.73
2024-01-12T07:49:13.736Z,24.98
2024-01-12T07:51:42.953Z,24.15
2024-01-12T07:54:10.686Z,22.23
2024-01-12T07:56:38.360Z,23.70
2024-01-12T07:59:05.938Z,20.02
2024-01-12T08:01:33.556Z,20.05
2024-01-12T08:04:01.157Z,18.17
2024-01-12T08:06:28.934Z,17.38
2024-01-12T08:08:57.978Z,15.02
2024-01-12T08:11:32.188Z,24.52
2024-01-12T08:14:07.896Z,23.20
2024-01-12T08:16:35.551Z,18.80
2024-01-12T08:19:03.210Z,17.85
2024-01-12T08:21:40.862Z,18.05
2024-01-12T08:24:17.613Z,19.13
2024-01-12T08:26:46.740Z,20.00
2024-01-12T08:29:14.533Z,18.25
2024-01-12T08:31:43.077Z,18.63
2024-01-12T08:34:11.222Z,18.27
2024-01-12T08:36:38.924Z,17.55
2024-01-12T08:39:06.627Z,20.27
2024-01-12T08:41:35.736Z,18.05
2024-01-12T08:44:03.532Z,18.27
2024-01-12T08:46:31.163Z,18.20
2024-01-12T08:48:59.934Z,17.88
2024-01-12T08:51:27.690Z,18.52
2024-01-12T08:53:55.438Z,19.73
2024-01-12T08:56:23.164Z,18.17
2024-01-12T08:58:52.159Z,17.08
2024-01-12T09:01:20.233Z,18.30
2024-01-12T09:03:50.695Z,18.67
2024-01-12T09:06:20.383Z,17.60
2024-01-12T09:08:48.145Z,18.33
2024-01-12T09:11:15.859Z,18.40
2024-01-12T09:13:43.552Z,19.60
2024-01-12T09:16:13.140Z,17.75
2024-01-12T09:18:41.008Z,18.08
2024-01-12T09:21:08.994Z,18.73
2024-01-12T09:23:36.886Z,19.23
2024-01-12T09:26:04.641Z,17.17
2024-01-12T09:28:32.192Z,17.08
2024-01-12T09:31:00.162Z,17.20
2024-01-12T09:33:29.218Z,16.48
2024-01-12T09:35:57.079Z,16.65
2024-01-12T09:38:24.844Z,16.52
2024-01-12T09:40:53.377Z,15.82
2024-01-12T09:43:23.963Z,16.83
2024-01-12T09:45:53.216Z,16.10
2024-01-12T09:48:22.150Z,16.25
2024-01-12T09:50:53.064Z,18.42
2024-01-12T09:53:22.688Z,16.17
2024-01-12T09:56:00.180Z,17.10
2024-01-12T09:58:31.881Z,16.80
2024-01-12T10:00:59.639Z,16.33
2024-01-12T10:03:27.672Z,15.30
2024-01-12T10:05:56.845Z,17.33
2024-01-12T10:08:24.560Z,16.15
2024-01-12T10:10:52.599Z,16.48
2024-01-12T10:13:20.284Z,15.73
2024-01-12T10:15:47.980Z,16.83
2024-01-12T10:18:15.887Z,16.70
2024-01-12T10:20:43.586Z,17.33
2024-01-12T10:23:12.569Z,17.55
2024-01-12T10:25:40.227Z,17.95
2024-01-12T10:28:07.952Z,17.15
2024-01-12T10:30:36.750Z,16.88
2024-01-12T10:33:04.736Z,17.60
2024-01-12T10:35:32.511Z,15.57
2024-01-12T10:38:03.543Z,16.02
2024-01-12T10:40:32.618Z,17.45
2024-01-12T10:43:05.656Z,16.65
2024-01-12T10:45:34.302Z,16.13
2024-01-12T10:48:05.631Z,16.10
2024-01-12T10:50:37.212Z,14.55
2024-01-12T10:53:12.523Z,14.10
2024-01-12T10:55:49.492Z,15.70
2024-01-12T10:58:18.543Z,14.77
2024-01-12T11:00:47.215Z,14.80
2024-01-12T11:03:17.554Z,14.18
2024-01-12T11:05:46.328Z,13.65
2024-01-12T11:08:14.521Z,13.65
2024-01-12T11:10:52.129Z,13.20
2024-01-12T11:13:20.310Z,14.70
2024-01-12T11:15:52.045Z,12.27
2024-01-12T11:18:20.573Z,12.75
2024-01-12T11:20:48.465Z,11.90
2024-01-12T11:23:16.248Z,11.75
2024-01-12T11:25:45.969Z,11.90
2024-01-12T11:28:15.875Z,11.55
2024-01-12T11:30:43.871Z,11.48
2024-01-12T11:33:11.826Z,11.90
2024-01-12T11:35:40.740Z,12.50
2024-01-12T11:38:11.269Z,11.55
2024-01-12T11:40:39.607Z,12.95
2024-01-12T11:43:16.609Z,12.00
2024-01-12T11:45:45.484Z,12.23
2024-01-12T11:48:16.099Z,13.35
2024-01-12T11:50:43.920Z,13.00
2024-01-12T11:53:11.652Z,12.65
2024-01-12T11:55:41.292Z,13.07
2024-01-12T11:58:10.244Z,13.63
2024-01-12T12:00:37.907Z,13.00
2024-01-12T12:03:06.182Z,12.95
2024-01-12T12:05:33.984Z,13.85
2024-01-12T12:08:01.813Z,13.48
2024-01-12T12:10:37.381Z,14.13
2024-01-12T12:13:12.589Z,12.65
2024-01-12T12:15:40.235Z,13.32
2024-01-12T12:18:08.451Z,12.88
2024-01-12T12:20:36.696Z,10.88
2024-01-12T12:23:04.759Z,11.30
2024-01-12T12:25:32.739Z,12.13
2024-01-12T12:28:00.525Z,11.20
2024-01-12T12:30:30.912Z,11.75
2024-01-12T12:33:01.730Z,10.70
2024-01-12T12:35:29.642Z,10.32
2024-01-12T12:38:02.664Z,10.27
2024-01-12T12:40:30.721Z,8.55
2024-01-12T12:42:59.781Z,8.75
2024-01-12T12:45:28.454Z,10.13
2024-01-12T12:47:59.303Z,9.73
2024-01-12T12:50:27.383Z,10.45
2024-01-12T12:52:55.076Z,10.27
2024-01-12T12:55:23.239Z,10.23
2024-01-12T12:57:52.129Z,9.95
2024-01-12T13:00:20.157Z,9.60
2024-01-12T13:02:49.564Z,10.20
2024-01-12T13:05:22.908Z,10.65
2024-01-12T13:07:51.397Z,10.82
2024-01-12T13:10:19.029Z,10.82
2024-01-12T13:12:46.674Z,9.60
2024-01-12T13:15:14.356Z,9.40
2024-01-12T13:17:43.040Z,9.50
2024-01-12T13:20:12.962Z,8.60
2024-01-12T13:22:42.086Z,7.78
2024-01-12T13:25:10.042Z,8.02
2024-01-12T13:27:38.615Z,8.05
2024-01-12T13:30:09.258Z,9.48
2024-01-12T13:32:37.457Z,8.27
2024-01-12T13:35:06.030Z,8.30
2024-01-12T13:37:33.787Z,9.30
2024-01-12T13:40:02.988Z,8.23
2024-01-12T13:42:30.727Z,8.68
2024-01-12T13:44:58.674Z,9.65
2024-01-12T13:47:26.470Z,9.32
2024-01-12T13:49:54.255Z,9.48
2024-01-12T13:52:22.614Z,9.20
2024-01-12T13:54:50.516Z,9.45
2024-01-12T13:57:19.982Z,9.65
2024-01-12T13:59:47.658Z,9.07
2024-01-12T14:02:15.438Z,9.70
2024-01-12T14:04:43.538Z,11.05
2024-01-12T14:07:11.327Z,9.80
2024-01-12T14:09:39.229Z,11.95
2024-01-12T14:12:09.918Z,10.25
2024-01-12T14:14:39.959Z,10.57
2024-01-12T14:17:07.591Z,10.15
2024-01-12T14:19:35.365Z,9.40
2024-01-12T14:22:03.069Z,11.88
2024-01-12T14:24:30.674Z,10.13
2024-01-12T14:26:58.306Z,9.98
2024-01-12T14:29:26.126Z,9.40
2024-01-12T14:31:56.141Z,9.55
2024-01-12T14:34:24.010Z,9.38
2024-01-12T14:36:51.851Z,10.32
2024-01-12T14:39:19.528Z,9.10
2024-01-12T14:41:48.517Z,9.18
2024-01-12T14:44:17.043Z,9.75
2024-01-12T14:46:45.061Z,9.60
2024-01-12T14:49:15.365Z,9.15
2024-01-12T14:51:43.939Z,10.25
2024-01-12T14:54:11.622Z,10.32
2024-01-12T14:56:39.344Z,9.93
2024-01-12T14:59:07.045Z,10.48
2024-01-12T15:01:34.748Z,11.30
2024-01-12T15:04:10.970Z,14.35
2024-01-12T15:06:47.915Z,11.00
2024-01-12T15:09:17.350Z,10.43
2024-01-12T15:11:47.405Z,9.82
2024-01-12T15:14:15.763Z,10.00
2024-01-12T15:16:44.886Z,10.63
2024-01-12T15:19:13.074Z,10.13
2024-01-12T15:21:40.993Z,9.70
2024-01-12T15:24:10.054Z,10.05
2024-01-12T15:26:38.102Z,9.80
2024-01-12T15:29:05.786Z,9.27
2024-01-12T15:31:33.601Z,10.27
2024-01-12T15:34:01.451Z,10.43
2024-01-12T15:36:29.327Z,9.93
2024-01-12T15:38:57.020Z,10.13
2024-01-12T15:41:26.019Z,10.38
2024-01-12T15:43:53.843Z,10.20
2024-01-12T15:46:21.443Z,10.35
2024-01-12T15:48:49.233Z,10.15
2024-01-12T15:51:17.293Z,10.02
2024-01-12T15:53:45.158Z,10.07
2024-01-12T15:56:12.800Z,9.88
2024-01-12T15:58:41.814Z,22.02
2024-01-12T16:01:09.483Z,22.83
2024-01-12T16:03:37.142Z,15.70
2024-01-12T16:06:08.610Z,11.82
2024-01-12T16:08:36.393Z,11.35
2024-01-12T16:11:04.024Z,12.05
2024-01-12T16:13:31.590Z,12.18
2024-01-12T16:16:01.292Z,11.18
2024-01-12T16:18:28.996Z,12.38
2024-01-12T16:20:56.777Z,12.75
2024-01-12T16:23:24.460Z,12.27
2024-01-12T16:25:52.160Z,12.45
2024-01-12T16:28:19.890Z,13.15
2024-01-12T16:30:47.636Z,11.93
2024-01-12T16:33:16.822Z,13.55
2024-01-12T16:35:44.535Z,13.45
2024-01-12T16:38:12.157Z,12.32
2024-01-12T16:40:39.996Z,13.52
2024-01-12T16:43:07.673Z,13.52
2024-01-12T16:45:35.333Z,12.65
2024-01-12T16:48:03.106Z,12.82
2024-01-12T16:50:32.147Z,13.27
2024-01-12T16:52:59.869Z,12.88
2024-01-12T16:55:27.935Z,13.93
2024-01-12T16:57:55.725Z,12.30
2024-01-12T17:00:23.440Z,13.00
2024-01-12T17:02:51.172Z,12.43
2024-01-12T17:05:18.842Z,12.65
2024-01-12T17:07:48.447Z,13.02
2024-01-12T17:10:16.366Z,10.07
2024-01-12T17:12:43.942Z,11.23
2024-01-12T17:15:17.455Z,11.93
2024-01-12T17:17:45.735Z,12.55
2024-01-12T17:20:13.899Z,11.38
2024-01-12T17:22:41.618Z,13.30
2024-01-12T17:25:11.372Z,11.45
2024-01-12T17:27:38.999Z,12.25
2024-01-12T17:30:07.807Z,12.10
2024-01-12T17:32:35.559Z,11.60
2024-01-12T17:35:03.292Z,10.30
2024-01-12T17:37:31.062Z,11.10
2024-01-12T17:39:58.693Z,11.40
2024-01-12T17:42:27.817Z,9.93
2024-01-12T17:44:55.386Z,11.77
2024-01-12T17:47:23.138Z,11.00
2024-01-12T17:49:51.900Z,11.68
2024-01-12T17:52:21.713Z,11.93
2024-01-12T17:54:49.800Z,17.63
2024-01-12T17:57:17.482Z,12.07
2024-01-12T17:59:46.507Z,11.73
2024-01-12T18:02:14.893Z,11.38
2024-01-12T18:04:43.397Z,11.25
2024-01-12T18:07:10.996Z,10.73
2024-01-12T18:09:38.554Z,10.80
2024-01-12T18:12:07.260Z,13.73
2024-01-12T18:14:37.759Z,13.25
2024-01-12T18:17:07.973Z,10.77
2024-01-12T18:19:35.829Z,10.88
2024-01-12T18:22:03.513Z,12.20
2024-01-12T18:24:31.107Z,10.93
2024-01-12T18:26:58.792Z,16.23
2024-01-12T18:29:26.886Z,14.07
2024-01-12T18:31:55.054Z,11.93
2024-01-12T18:34:24.330Z,11.07
2024-01-12T18:36:52.160Z,10.85
2024-01-12T18:39:19.870Z,11.48
2024-01-12T18:41:47.590Z,10.88
2024-01-12T18:44:15.265Z,10.32
2024-01-12T18:46:43.760Z,11.65
2024-01-12T18:49:11.593Z,10.63
2024-01-12T18:51:41.828Z,10.90
2024-01-12T18:54:10.785Z,13.13
2024-01-12T18:56:38.599Z,12.07
2024-01-12T18:59:06.237Z,13.38
2024-01-12T19:01:36.975Z,13.10
2024-01-12T19:04:05.108Z,14.52
2024-01-12T19:06:32.855Z,12.70
2024-01-12T19:09:05.640Z,13.25
2024-01-12T19:11:33.774Z,13.77
2024-01-12T19:14:01.451Z,12.90
2024-01-12T19:16:29.337Z,15.15
2024-01-12T19:18:57.256Z,14.45
2024-01-12T19:21:24.939Z,14.80
2024-01-12T19:23:52.642Z,13.35
2024-01-12T19:26:21.646Z,13.50
2024-01-12T19:28:49.267Z,14.90
2024-01-12T19:31:23.420Z,15.05
2024-01-12T19:33:51.287Z,15.10
2024-01-12T19:36:19.465Z,15.55
2024-01-12T19:38:47.277Z,15.55
2024-01-12T19:41:24.495Z,14.73
2024-01-12T19:43:52.389Z,13.52
2024-01-12T19:46:20.023Z,14.85
2024-01-12T19:48:47.867Z,15.00
2024-01-12T19:51:15.680Z,13.55
2024-01-12T19:53:43.792Z,14.82
2024-01-12T19:56:11.485Z,13.90
2024-01-12T19:58:40.770Z,15.00
2024-01-12T20:01:10.521Z,14.55
2024-01-12T20:03:39.313Z,14.57
2024-01-12T20:06:07.227Z,14.07
2024-01-12T20:08:35.121Z,15.05
2024-01-12T20:11:05.497Z,13.30
2024-01-12T20:13:34.713Z,13.52
2024-01-12T20:16:03.899Z,14.13
2024-01-12T20:18:31.691Z,15.15
2024-01-12T20:20:59.388Z,13.60
2024-01-12T20:23:28.328Z,13.80
2024-01-12T20:25:56.139Z,13.95
2024-01-12T20:28:23.711Z,13.35
2024-01-12T20:30:51.441Z,13.48
2024-01-12T20:33:20.733Z,14.13
2024-01-12T20:35:49.359Z,14.43
2024-01-12T20:38:17.271Z,12.98
2024-01-12T20:40:45.935Z,13.52
2024-01-12T20:43:13.610Z,14.18
2024-01-12T20:45:43.762Z,14.85
2024-01-12T20:48:12.876Z,13.90
2024-01-12T20:50:41.945Z,13.93
2024-01-12T20:53:09.589Z,14.45
2024-01-12T20:55:37.195Z,13.93
2024-01-12T20:58:05.077Z,13.95
2024-01-12T21:00:34.142Z,13.90
2024-01-12T21:03:02.065Z,13.27
2024-01-12T21:05:29.823Z,13.35
2024-01-12T21:07:58.881Z,13.73
2024-01-12T21:10:26.661Z,13.85
2024-01-12T21:12:54.255Z,14.57
2024-01-12T21:15:21.879Z,14.13
2024-01-12T21:17:50.511Z,12.55
2024-01-12T21:20:18.247Z,13.95
2024-01-12T21:22:45.865Z,12.48
2024-01-12T21:25:15.071Z,12.48
2024-01-12T21:27:43.236Z,14.80
2024-01-12T21:30:11.946Z,13.73
2024-01-12T21:32:40.289Z,13.82
2024-01-12T21:35:08.706Z,13.23
2024-01-12T21:37:36.422Z,13.32
2024-01-12T21:40:05.072Z,13.30
2024-01-12T21:42:34.275Z,12.55
2024-01-12T21:45:02.018Z,13.48
2024-01-12T21:47:29.936Z,13.98
2024-01-12T21:49:57.716Z,13.55
2024-01-12T21:52:25.315Z,13.70
2024-01-12T21:54:52.978Z,13.75
2024-01-12T21:57:20.753Z,14.48
2024-01-12T21:59:49.924Z,14.07
2024-01-12T22:02:17.593Z,13.55
2024-01-12T22:04:45.193Z,12.77
2024-01-12T22:07:13.817Z,14.00
2024-01-12T22:09:41.539Z,13.00
2024-01-12T22:12:10.043Z,14.15
2024-01-12T22:14:37.890Z,13.50
2024-01-12T22:17:06.863Z,12.65
2024-01-12T22:19:34.630Z,13.75
2024-01-12T22:22:02.294Z,13.10
2024-01-12T22:24:29.904Z,13.57
2024-01-12T22:26:57.640Z,13.85
2024-01-12T22:29:25.262Z,13.85
2024-01-12T22:31:52.912Z,11.02
2024-01-12T22:34:21.880Z,12.43
2024-01-12T22:36:49.608Z,11.77
2024-01-12T22:39:17.227Z,9.98
2024-01-12T22:41:44.937Z,9.10
2024-01-12T22:44:12.632Z,8.77
2024-01-12T22:46:40.650Z,9.00
2024-01-12T22:49:11.299Z,8.68
2024-01-12T22:51:41.220Z,9.50
2024-01-12T22:54:08.980Z,9.93
2024-01-12T22:56:36.820Z,7.63
2024-01-12T22:59:04.516Z,7.40
2024-01-12T23:01:32.147Z,8.18
2024-01-12T23:03:59.934Z,8.27
2024-01-12T23:06:27.715Z,8.50
2024-01-12T23:08:56.788Z,8.13
2024-01-12T23:11:24.440Z,8.43
2024-01-12T23:13:52.091Z,8.43
2024-01-12T23:16:20.095Z,8.82
2024-01-12T23:18:47.820Z,8.20
2024-01-12T23:21:15.551Z,9.25
2024-01-12T23:23:46.090Z,8.68
2024-01-12T23:26:15.331Z,7.75
2024-01-12T23:28:43.005Z,7.45
2024-01-12T23:31:11.348Z,8.80
2024-01-12T23:33:39.141Z,8.20
2024-01-12T23:36:07.258Z,8.90
2024-01-12T23:38:35.671Z,8.50
2024-01-12T23:41:04.401Z,8.63
2024-01-12T23:43:33.631Z,8.98
2024-01-12T23:46:01.599Z,8.05
2024-01-12T23:48:34.726Z,8.35
2024-01-12T23:51:05.884Z,9.07
2024-01-12T23:53:33.693Z,9.50
2024-01-12T23:56:01.470Z,10.73
2024-01-12T23:58:34.699Z,10.05
